sensor_id;sensor_type;location;lat;lon;timestamp;temperature;humidity
70300;HTU21D;57704;51.112;5.878;2023-06-22T00:00:53;24.27;47.52
70300;HTU21D;57704;51.112;5.878;2023-06-22T00:03:22;24.24;47.53
70300;HTU21D;57704;51.112;5.878;2023-06-22T00:05:48;24.24;47.51
70300;HTU21D;57704;51.112;5.878;2023-06-22T00:08:15;24.20;47.63
70300;HTU21D;57704;51.112;5.878;2023-06-22T00:10:41;24.16;47.65
70300;HTU21D;57704;51.112;5.878;2023-06-22T00:13:09;24.12;47.75
70300;HTU21D;57704;51.112;5.878;2023-06-22T00:15:37;24.03;47.77
70300;HTU21D;57704;51.112;5.878;2023-06-22T00:18:05;23.99;47.97
70300;HTU21D;57704;51.112;5.878;2023-06-22T00:20:31;23.97;47.99
70300;HTU21D;57704;51.112;5.878;2023-06-22T00:22:59;23.94;47.96
70300;HTU21D;57704;51.112;5.878;2023-06-22T00:25:26;23.91;48.04
70300;HTU21D;57704;51.112;5.878;2023-06-22T00:27:52;23.90;48.09
70300;HTU21D;57704;51.112;5.878;2023-06-22T00:30:18;23.88;47.98
70300;HTU21D;57704;51.112;5.878;2023-06-22T00:32:45;23.84;48.03
70300;HTU21D;57704;51.112;5.878;2023-06-22T00:35:14;23.84;48.08
70300;HTU21D;57704;51.112;5.878;2023-06-22T00:37:40;23.85;48.10
70300;HTU21D;57704;51.112;5.878;2023-06-22T00:40:10;23.86;48.09
70300;HTU21D;57704;51.112;5.878;2023-06-22T00:42:40;23.82;48.16
70300;HTU21D;57704;51.112;5.878;2023-06-22T00:45:07;23.82;48.23
70300;HTU21D;57704;51.112;5.878;2023-06-22T00:47:37;23.85;48.30
70300;HTU21D;57704;51.112;5.878;2023-06-22T00:50:07;23.84;48.38
70300;HTU21D;57704;51.112;5.878;2023-06-22T00:52:35;23.81;48.47
70300;HTU21D;57704;51.112;5.878;2023-06-22T00:55:02;23.81;48.60
70300;HTU21D;57704;51.112;5.878;2023-06-22T00:57:30;23.82;48.76
70300;HTU21D;57704;51.112;5.878;2023-06-22T00:59:56;23.86;48.79
70300;HTU21D;57704;51.112;5.878;2023-06-22T01:02:22;23.90;48.85
70300;HTU21D;57704;51.112;5.878;2023-06-22T01:04:49;23.91;48.89
70300;HTU21D;57704;51.112;5.878;2023-06-22T01:08:16;23.91;49.03
70300;HTU21D;57704;51.112;5.878;2023-06-22T01:15:51;23.80;49.75
70300;HTU21D;57704;51.112;5.878;2023-06-22T01:18:22;23.70;50.25
70300;HTU21D;57704;51.112;5.878;2023-06-22T01:20:54;23.65;50.58
70300;HTU21D;57704;51.112;5.878;2023-06-22T01:23:37;23.56;51.08
70300;HTU21D;57704;51.112;5.878;2023-06-22T01:26:11;23.52;51.43
70300;HTU21D;57704;51.112;5.878;2023-06-22T01:28:50;23.56;51.43
70300;HTU21D;57704;51.112;5.878;2023-06-22T01:31:24;23.59;51.55
70300;HTU21D;57704;51.112;5.878;2023-06-22T01:33:58;23.61;51.65
70300;HTU21D;57704;51.112;5.878;2023-06-22T01:36:26;23.57;51.91
70300;HTU21D;57704;51.112;5.878;2023-06-22T01:38:53;23.59;52.23
70300;HTU21D;57704;51.112;5.878;2023-06-22T01:41:24;23.60;52.16
70300;HTU21D;57704;51.112;5.878;2023-06-22T01:43:52;23.64;52.33
70300;HTU21D;57704;51.112;5.878;2023-06-22T01:46:20;23.64;52.49
70300;HTU21D;57704;51.112;5.878;2023-06-22T01:48:47;23.57;52.65
70300;HTU21D;57704;51.112;5.878;2023-06-22T01:51:13;23.57;52.81
70300;HTU21D;57704;51.112;5.878;2023-06-22T01:53:40;23.58;52.87
70300;HTU21D;57704;51.112;5.878;2023-06-22T01:56:06;23.56;52.83
70300;HTU21D;57704;51.112;5.878;2023-06-22T01:58:33;23.57;53.07
70300;HTU21D;57704;51.112;5.878;2023-06-22T02:01:12;23.52;53.59
70300;HTU21D;57704;51.112;5.878;2023-06-22T02:03:43;23.47;54.06
70300;HTU21D;57704;51.112;5.878;2023-06-22T02:06:18;23.43;54.01
70300;HTU21D;57704;51.112;5.878;2023-06-22T02:08:50;23.44;54.12
70300;HTU21D;57704;51.112;5.878;2023-06-22T02:11:21;23.44;54.13
70300;HTU21D;57704;51.112;5.878;2023-06-22T02:13:48;23.50;54.44
70300;HTU21D;57704;51.112;5.878;2023-06-22T02:16:16;23.41;54.46
70300;HTU21D;57704;51.112;5.878;2023-06-22T02:18:48;23.42;54.61
70300;HTU21D;57704;51.112;5.878;2023-06-22T02:21:20;23.42;54.44
70300;HTU21D;57704;51.112;5.878;2023-06-22T02:23:47;23.43;54.74
70300;HTU21D;57704;51.112;5.878;2023-06-22T02:26:15;23.45;54.93
70300;HTU21D;57704;51.112;5.878;2023-06-22T02:28:41;23.50;54.64
70300;HTU21D;57704;51.112;5.878;2023-06-22T02:31:08;23.54;54.71
70300;HTU21D;57704;51.112;5.878;2023-06-22T02:33:34;23.59;54.47
70300;HTU21D;57704;51.112;5.878;2023-06-22T02:36:00;23.58;54.86
70300;HTU21D;57704;51.112;5.878;2023-06-22T02:38:32;23.57;54.91
70300;HTU21D;57704;51.112;5.878;2023-06-22T02:41:02;23.55;55.12
70300;HTU21D;57704;51.112;5.878;2023-06-22T02:43:28;23.57;55.24
70300;HTU21D;57704;51.112;5.878;2023-06-22T02:45:55;23.55;55.21
70300;HTU21D;57704;51.112;5.878;2023-06-22T02:48:21;23.51;55.36
70300;HTU21D;57704;51.112;5.878;2023-06-22T02:50:47;23.46;55.69
70300;HTU21D;57704;51.112;5.878;2023-06-22T02:53:13;23.45;55.67
70300;HTU21D;57704;51.112;5.878;2023-06-22T02:55:43;23.41;55.87
70300;HTU21D;57704;51.112;5.878;2023-06-22T02:58:09;23.38;55.97
70300;HTU21D;57704;51.112;5.878;2023-06-22T03:00:37;23.35;56.09
70300;HTU21D;57704;51.112;5.878;2023-06-22T03:03:05;23.30;56.33
70300;HTU21D;57704;51.112;5.878;2023-06-22T03:05:31;23.26;56.64
70300;HTU21D;57704;51.112;5.878;2023-06-22T03:07:59;23.16;56.81
70300;HTU21D;57704;51.112;5.878;2023-06-22T03:10:27;23.12;57.06
70300;HTU21D;57704;51.112;5.878;2023-06-22T03:12:54;23.09;57.18
70300;HTU21D;57704;51.112;5.878;2023-06-22T03:15:20;23.05;57.13
70300;HTU21D;57704;51.112;5.878;2023-06-22T03:17:46;23.03;57.61
70300;HTU21D;57704;51.112;5.878;2023-06-22T03:20:12;22.97;57.58
70300;HTU21D;57704;51.112;5.878;2023-06-22T03:22:40;22.92;57.96
70300;HTU21D;57704;51.112;5.878;2023-06-22T03:25:07;22.84;58.15
70300;HTU21D;57704;51.112;5.878;2023-06-22T03:27:41;22.81;58.24
70300;HTU21D;57704;51.112;5.878;2023-06-22T03:30:10;22.85;58.21
70300;HTU21D;57704;51.112;5.878;2023-06-22T03:32:36;22.92;58.06
70300;HTU21D;57704;51.112;5.878;2023-06-22T03:35:02;23.00;57.96
70300;HTU21D;57704;51.112;5.878;2023-06-22T03:37:29;23.07;57.77
70300;HTU21D;57704;51.112;5.878;2023-06-22T03:39:55;23.12;57.75
70300;HTU21D;57704;51.112;5.878;2023-06-22T03:42:21;23.14;57.64
70300;HTU21D;57704;51.112;5.878;2023-06-22T03:44:47;23.14;57.91
70300;HTU21D;57704;51.112;5.878;2023-06-22T03:47:13;23.16;57.84
70300;HTU21D;57704;51.112;5.878;2023-06-22T03:49:40;23.17;58.03
70300;HTU21D;57704;51.112;5.878;2023-06-22T03:52:07;23.22;58.03
70300;HTU21D;57704;51.112;5.878;2023-06-22T03:54:33;23.22;57.88
70300;HTU21D;57704;51.112;5.878;2023-06-22T03:56:59;23.25;58.09
70300;HTU21D;57704;51.112;5.878;2023-06-22T03:59:25;23.29;58.15
70300;HTU21D;57704;51.112;5.878;2023-06-22T04:01:51;23.28;58.17
70300;HTU21D;57704;51.112;5.878;2023-06-22T04:04:18;23.28;58.09
70300;HTU21D;57704;51.112;5.878;2023-06-22T04:06:44;23.23;58.29
70300;HTU21D;57704;51.112;5.878;2023-06-22T04:09:09;23.13;58.73
70300;HTU21D;57704;51.112;5.878;2023-06-22T04:11:35;23.03;58.95
70300;HTU21D;57704;51.112;5.878;2023-06-22T04:14:01;23.01;59.10
70300;HTU21D;57704;51.112;5.878;2023-06-22T04:16:28;23.02;59.09
70300;HTU21D;57704;51.112;5.878;2023-06-22T04:18:53;23.05;58.90
70300;HTU21D;57704;51.112;5.878;2023-06-22T04:21:19;22.94;59.09
70300;HTU21D;57704;51.112;5.878;2023-06-22T04:23:46;22.88;59.54
70300;HTU21D;57704;51.112;5.878;2023-06-22T04:26:13;22.90;59.56
70300;HTU21D;57704;51.112;5.878;2023-06-22T04:28:40;22.91;59.67
70300;HTU21D;57704;51.112;5.878;2023-06-22T04:31:06;22.96;59.50
70300;HTU21D;57704;51.112;5.878;2023-06-22T04:33:33;22.96;59.52
70300;HTU21D;57704;51.112;5.878;2023-06-22T04:35:58;23.06;59.47
70300;HTU21D;57704;51.112;5.878;2023-06-22T04:38:27;23.12;59.41
70300;HTU21D;57704;51.112;5.878;2023-06-22T04:40:53;23.22;59.13
70300;HTU21D;57704;51.112;5.878;2023-06-22T04:43:19;23.24;59.15
70300;HTU21D;57704;51.112;5.878;2023-06-22T04:45:46;23.18;59.39
70300;HTU21D;57704;51.112;5.878;2023-06-22T04:48:12;23.14;59.51
70300;HTU21D;57704;51.112;5.878;2023-06-22T04:50:42;23.12;59.40
70300;HTU21D;57704;51.112;5.878;2023-06-22T04:53:08;23.16;59.41
70300;HTU21D;57704;51.112;5.878;2023-06-22T04:55:35;23.17;59.41
70300;HTU21D;57704;51.112;5.878;2023-06-22T04:58:03;23.23;59.42
70300;HTU21D;57704;51.112;5.878;2023-06-22T05:00:31;23.36;58.99
70300;HTU21D;57704;51.112;5.878;2023-06-22T05:02:57;23.34;59.12
70300;HTU21D;57704;51.112;5.878;2023-06-22T05:05:29;23.31;59.16
70300;HTU21D;57704;51.112;5.878;2023-06-22T05:07:56;23.29;59.35
70300;HTU21D;57704;51.112;5.878;2023-06-22T05:10:26;23.36;59.25
70300;HTU21D;57704;51.112;5.878;2023-06-22T05:12:52;23.40;59.03
70300;HTU21D;57704;51.112;5.878;2023-06-22T05:15:18;23.40;59.11
70300;HTU21D;57704;51.112;5.878;2023-06-22T05:17:48;23.44;58.97
70300;HTU21D;57704;51.112;5.878;2023-06-22T05:20:14;23.45;59.13
70300;HTU21D;57704;51.112;5.878;2023-06-22T05:22:43;23.47;59.12
70300;HTU21D;57704;51.112;5.878;2023-06-22T05:25:11;23.55;58.95
70300;HTU21D;57704;51.112;5.878;2023-06-22T05:27:37;23.59;58.80
70300;HTU21D;57704;51.112;5.878;2023-06-22T05:30:07;23.62;58.84
70300;HTU21D;57704;51.112;5.878;2023-06-22T05:32:34;23.68;58.79
70300;HTU21D;57704;51.112;5.878;2023-06-22T05:35:00;23.70;58.80
70300;HTU21D;57704;51.112;5.878;2023-06-22T05:37:26;23.76;58.58
70300;HTU21D;57704;51.112;5.878;2023-06-22T05:39:52;23.80;58.54
70300;HTU21D;57704;51.112;5.878;2023-06-22T05:42:18;23.79;58.63
70300;HTU21D;57704;51.112;5.878;2023-06-22T05:44:44;23.75;58.67
70300;HTU21D;57704;51.112;5.878;2023-06-22T05:47:10;23.74;58.74
70300;HTU21D;57704;51.112;5.878;2023-06-22T05:49:36;23.80;58.74
70300;HTU21D;57704;51.112;5.878;2023-06-22T05:52:02;23.82;58.43
70300;HTU21D;57704;51.112;5.878;2023-06-22T05:54:28;23.75;58.65
70300;HTU21D;57704;51.112;5.878;2023-06-22T05:56:54;23.72;58.73
70300;HTU21D;57704;51.112;5.878;2023-06-22T05:59:20;23.71;58.77
70300;HTU21D;57704;51.112;5.878;2023-06-22T06:01:46;23.70;58.74
70300;HTU21D;57704;51.112;5.878;2023-06-22T06:04:20;23.69;58.81
70300;HTU21D;57704;51.112;5.878;2023-06-22T06:06:46;23.71;58.87
70300;HTU21D;57704;51.112;5.878;2023-06-22T06:09:13;23.75;58.44
70300;HTU21D;57704;51.112;5.878;2023-06-22T06:11:40;23.95;57.76
70300;HTU21D;57704;51.112;5.878;2023-06-22T06:14:06;24.11;57.22
70300;HTU21D;57704;51.112;5.878;2023-06-22T06:16:32;24.29;56.74
70300;HTU21D;57704;51.112;5.878;2023-06-22T06:18:58;24.45;56.31
70300;HTU21D;57704;51.112;5.878;2023-06-22T06:21:24;24.53;56.03
70300;HTU21D;57704;51.112;5.878;2023-06-22T06:23:50;24.61;55.93
70300;HTU21D;57704;51.112;5.878;2023-06-22T06:26:16;24.70;55.74
70300;HTU21D;57704;51.112;5.878;2023-06-22T06:28:43;24.77;55.57
70300;HTU21D;57704;51.112;5.878;2023-06-22T06:31:09;24.86;55.34
70300;HTU21D;57704;51.112;5.878;2023-06-22T06:33:36;24.91;55.18
70300;HTU21D;57704;51.112;5.878;2023-06-22T06:36:02;24.97;55.04
70300;HTU21D;57704;51.112;5.878;2023-06-22T06:38:30;24.97;55.07
70300;HTU21D;57704;51.112;5.878;2023-06-22T06:40:56;25.00;55.00
70300;HTU21D;57704;51.112;5.878;2023-06-22T06:43:22;24.95;55.49
70300;HTU21D;57704;51.112;5.878;2023-06-22T06:45:49;24.45;57.55
70300;HTU21D;57704;51.112;5.878;2023-06-22T06:48:15;23.77;60.26
70300;HTU21D;57704;51.112;5.878;2023-06-22T06:50:41;23.20;63.23
70300;HTU21D;57704;51.112;5.878;2023-06-22T06:53:10;22.78;65.03
70300;HTU21D;57704;51.112;5.878;2023-06-22T06:55:36;22.48;67.20
70300;HTU21D;57704;51.112;5.878;2023-06-22T06:58:02;22.32;68.44
70300;HTU21D;57704;51.112;5.878;2023-06-22T07:00:29;22.27;68.83
70300;HTU21D;57704;51.112;5.878;2023-06-22T07:02:55;22.27;69.21
70300;HTU21D;57704;51.112;5.878;2023-06-22T07:05:21;22.31;69.42
70300;HTU21D;57704;51.112;5.878;2023-06-22T07:07:47;22.37;69.96
70300;HTU21D;57704;51.112;5.878;2023-06-22T07:10:13;22.46;69.44
70300;HTU21D;57704;51.112;5.878;2023-06-22T07:12:40;22.52;69.49
70300;HTU21D;57704;51.112;5.878;2023-06-22T07:15:08;22.61;69.70
70300;HTU21D;57704;51.112;5.878;2023-06-22T07:17:36;22.67;69.55
70300;HTU21D;57704;51.112;5.878;2023-06-22T07:20:02;22.69;69.42
70300;HTU21D;57704;51.112;5.878;2023-06-22T07:22:34;22.69;69.97
70300;HTU21D;57704;51.112;5.878;2023-06-22T07:24:59;22.73;70.63
70300;HTU21D;57704;51.112;5.878;2023-06-22T07:27:27;22.87;70.81
70300;HTU21D;57704;51.112;5.878;2023-06-22T07:29:52;23.07;70.01
70300;HTU21D;57704;51.112;5.878;2023-06-22T07:32:21;23.23;69.95
70300;HTU21D;57704;51.112;5.878;2023-06-22T07:34:47;23.43;69.16
70300;HTU21D;57704;51.112;5.878;2023-06-22T07:37:13;23.56;68.33
70300;HTU21D;57704;51.112;5.878;2023-06-22T07:39:39;23.64;68.39
70300;HTU21D;57704;51.112;5.878;2023-06-22T07:42:05;23.72;66.36
70300;HTU21D;57704;51.112;5.878;2023-06-22T07:44:31;23.57;68.57
70300;HTU21D;57704;51.112;5.878;2023-06-22T07:46:57;23.73;67.70
70300;HTU21D;57704;51.112;5.878;2023-06-22T07:49:23;23.83;67.90
70300;HTU21D;57704;51.112;5.878;2023-06-22T07:51:49;23.87;66.72
70300;HTU21D;57704;51.112;5.878;2023-06-22T07:54:15;23.94;66.91
70300;HTU21D;57704;51.112;5.878;2023-06-22T07:56:42;23.95;65.74
70300;HTU21D;57704;51.112;5.878;2023-06-22T07:59:08;23.95;67.55
70300;HTU21D;57704;51.112;5.878;2023-06-22T08:01:35;24.18;67.54
70300;HTU21D;57704;51.112;5.878;2023-06-22T08:04:01;24.47;66.89
70300;HTU21D;57704;51.112;5.878;2023-06-22T08:06:30;24.86;66.67
70300;HTU21D;57704;51.112;5.878;2023-06-22T08:08:55;25.31;65.17
70300;HTU21D;57704;51.112;5.878;2023-06-22T08:11:24;25.51;64.25
70300;HTU21D;57704;51.112;5.878;2023-06-22T08:13:51;25.75;62.60
70300;HTU21D;57704;51.112;5.878;2023-06-22T08:16:17;25.83;63.99
70300;HTU21D;57704;51.112;5.878;2023-06-22T08:18:43;26.21;62.70
70300;HTU21D;57704;51.112;5.878;2023-06-22T08:21:15;26.50;61.48
70300;HTU21D;57704;51.112;5.878;2023-06-22T08:23:41;26.80;60.16
70300;HTU21D;57704;51.112;5.878;2023-06-22T08:26:07;27.07;57.71
70300;HTU21D;57704;51.112;5.878;2023-06-22T08:28:33;26.98;57.67
70300;HTU21D;57704;51.112;5.878;2023-06-22T08:31:00;27.02;57.04
70300;HTU21D;57704;51.112;5.878;2023-06-22T08:33:26;27.04;56.69
70300;HTU21D;57704;51.112;5.878;2023-06-22T08:35:58;26.93;56.48
70300;HTU21D;57704;51.112;5.878;2023-06-22T08:38:24;26.98;56.61
70300;HTU21D;57704;51.112;5.878;2023-06-22T08:40:51;27.20;56.28
70300;HTU21D;57704;51.112;5.878;2023-06-22T08:43:16;27.34;55.08
70300;HTU21D;57704;51.112;5.878;2023-06-22T08:45:42;27.30;55.26
70300;HTU21D;57704;51.112;5.878;2023-06-22T08:48:08;27.49;54.40
70300;HTU21D;57704;51.112;5.878;2023-06-22T08:50:34;27.34;54.59
70300;HTU21D;57704;51.112;5.878;2023-06-22T08:53:00;27.30;54.85
70300;HTU21D;57704;51.112;5.878;2023-06-22T08:55:26;27.36;54.51
70300;HTU21D;57704;51.112;5.878;2023-06-22T08:57:52;27.35;54.30
70300;HTU21D;57704;51.112;5.878;2023-06-22T09:00:18;27.35;53.98
70300;HTU21D;57704;51.112;5.878;2023-06-22T09:02:47;27.30;54.33
70300;HTU21D;57704;51.112;5.878;2023-06-22T09:05:13;27.20;54.43
70300;HTU21D;57704;51.112;5.878;2023-06-22T09:07:40;27.22;54.82
70300;HTU21D;57704;51.112;5.878;2023-06-22T09:10:06;27.40;54.41
70300;HTU21D;57704;51.112;5.878;2023-06-22T09:12:33;27.68;53.78
70300;HTU21D;57704;51.112;5.878;2023-06-22T09:15:00;27.88;53.02
70300;HTU21D;57704;51.112;5.878;2023-06-22T09:17:26;27.93;52.74
70300;HTU21D;57704;51.112;5.878;2023-06-22T09:19:53;28.08;52.47
70300;HTU21D;57704;51.112;5.878;2023-06-22T09:22:19;28.13;52.47
70300;HTU21D;57704;51.112;5.878;2023-06-22T09:24:45;28.21;52.08
70300;HTU21D;57704;51.112;5.878;2023-06-22T09:27:10;28.09;51.85
70300;HTU21D;57704;51.112;5.878;2023-06-22T09:29:36;27.82;52.43
70300;HTU21D;57704;51.112;5.878;2023-06-22T09:32:02;27.81;52.83
70300;HTU21D;57704;51.112;5.878;2023-06-22T09:34:28;27.81;52.56
70300;HTU21D;57704;51.112;5.878;2023-06-22T09:36:57;27.69;53.01
70300;HTU21D;57704;51.112;5.878;2023-06-22T09:39:26;27.73;52.76
70300;HTU21D;57704;51.112;5.878;2023-06-22T09:41:51;27.72;52.82
70300;HTU21D;57704;51.112;5.878;2023-06-22T09:44:21;27.63;52.56
70300;HTU21D;57704;51.112;5.878;2023-06-22T09:46:47;27.40;53.33
70300;HTU21D;57704;51.112;5.878;2023-06-22T09:49:13;27.38;53.54
70300;HTU21D;57704;51.112;5.878;2023-06-22T09:51:39;27.44;53.40
70300;HTU21D;57704;51.112;5.878;2023-06-22T09:54:05;27.46;53.14
70300;HTU21D;57704;51.112;5.878;2023-06-22T09:56:30;27.46;53.30
70300;HTU21D;57704;51.112;5.878;2023-06-22T09:58:57;27.41;53.27
70300;HTU21D;57704;51.112;5.878;2023-06-22T10:01:22;27.42;53.44
70300;HTU21D;57704;51.112;5.878;2023-06-22T10:03:49;27.45;53.16
70300;HTU21D;57704;51.112;5.878;2023-06-22T10:06:15;27.37;53.16
70300;HTU21D;57704;51.112;5.878;2023-06-22T10:08:41;27.24;53.26
70300;HTU21D;57704;51.112;5.878;2023-06-22T10:11:07;26.98;53.72
70300;HTU21D;57704;51.112;5.878;2023-06-22T10:13:32;26.85;54.12
70300;HTU21D;57704;51.112;5.878;2023-06-22T10:15:58;26.83;54.24
70300;HTU21D;57704;51.112;5.878;2023-06-22T10:18:24;26.81;54.33
70300;HTU21D;57704;51.112;5.878;2023-06-22T10:20:51;26.78;54.46
70300;HTU21D;57704;51.112;5.878;2023-06-22T10:23:18;26.73;54.44
70300;HTU21D;57704;51.112;5.878;2023-06-22T10:25:44;26.56;55.54
70300;HTU21D;57704;51.112;5.878;2023-06-22T10:28:10;26.08;57.33
70300;HTU21D;57704;51.112;5.878;2023-06-22T10:30:35;25.57;59.97
70300;HTU21D;57704;51.112;5.878;2023-06-22T10:33:01;25.20;60.25
70300;HTU21D;57704;51.112;5.878;2023-06-22T10:35:27;24.77;62.32
70300;HTU21D;57704;51.112;5.878;2023-06-22T10:37:54;24.41;62.90
70300;HTU21D;57704;51.112;5.878;2023-06-22T10:40:21;23.87;66.65
70300;HTU21D;57704;51.112;5.878;2023-06-22T10:42:47;23.18;72.69
70300;HTU21D;57704;51.112;5.878;2023-06-22T10:45:13;22.92;73.57
70300;HTU21D;57704;51.112;5.878;2023-06-22T10:47:39;22.86;74.06
70300;HTU21D;57704;51.112;5.878;2023-06-22T10:50:08;22.83;74.02
70300;HTU21D;57704;51.112;5.878;2023-06-22T10:52:34;22.81;74.35
70300;HTU21D;57704;51.112;5.878;2023-06-22T10:55:00;22.82;74.65
70300;HTU21D;57704;51.112;5.878;2023-06-22T10:57:26;22.88;74.96
70300;HTU21D;57704;51.112;5.878;2023-06-22T10:59:52;22.91;74.67
70300;HTU21D;57704;51.112;5.878;2023-06-22T11:02:17;22.92;74.54
70300;HTU21D;57704;51.112;5.878;2023-06-22T11:04:43;22.82;74.47
70300;HTU21D;57704;51.112;5.878;2023-06-22T11:07:10;22.77;75.25
70300;HTU21D;57704;51.112;5.878;2023-06-22T11:09:36;22.77;75.25
70300;HTU21D;57704;51.112;5.878;2023-06-22T11:12:02;22.71;75.47
70300;HTU21D;57704;51.112;5.878;2023-06-22T11:14:28;22.68;76.87
70300;HTU21D;57704;51.112;5.878;2023-06-22T11:16:54;22.84;77.72
70300;HTU21D;57704;51.112;5.878;2023-06-22T11:19:20;23.11;77.53
70300;HTU21D;57704;51.112;5.878;2023-06-22T11:21:46;23.50;77.08
70300;HTU21D;57704;51.112;5.878;2023-06-22T11:24:12;23.94;76.34
70300;HTU21D;57704;51.112;5.878;2023-06-22T11:26:37;24.41;76.06
70300;HTU21D;57704;51.112;5.878;2023-06-22T11:29:03;24.74;74.61
70300;HTU21D;57704;51.112;5.878;2023-06-22T11:31:32;24.88;75.44
70300;HTU21D;57704;51.112;5.878;2023-06-22T11:33:58;24.91;74.49
70300;HTU21D;57704;51.112;5.878;2023-06-22T11:36:25;24.91;74.71
70300;HTU21D;57704;51.112;5.878;2023-06-22T11:38:51;24.84;75.44
70300;HTU21D;57704;51.112;5.878;2023-06-22T11:41:17;24.83;75.92
70300;HTU21D;57704;51.112;5.878;2023-06-22T11:43:44;24.83;76.27
70300;HTU21D;57704;51.112;5.878;2023-06-22T11:46:11;24.77;76.06
70300;HTU21D;57704;51.112;5.878;2023-06-22T11:48:37;24.72;75.77
70300;HTU21D;57704;51.112;5.878;2023-06-22T11:51:03;24.69;75.76
70300;HTU21D;57704;51.112;5.878;2023-06-22T11:53:29;24.59;76.36
70300;HTU21D;57704;51.112;5.878;2023-06-22T11:55:56;24.50;76.32
70300;HTU21D;57704;51.112;5.878;2023-06-22T11:58:22;24.39;76.84
70300;HTU21D;57704;51.112;5.878;2023-06-22T12:00:48;24.35;76.75
70300;HTU21D;57704;51.112;5.878;2023-06-22T12:03:14;24.29;76.82
70300;HTU21D;57704;51.112;5.878;2023-06-22T12:05:42;24.12;76.79
70300;HTU21D;57704;51.112;5.878;2023-06-22T12:08:08;24.09;77.73
70300;HTU21D;57704;51.112;5.878;2023-06-22T12:10:34;24.09;77.72
70300;HTU21D;57704;51.112;5.878;2023-06-22T12:13:00;24.11;77.49
70300;HTU21D;57704;51.112;5.878;2023-06-22T12:15:27;24.09;76.53
70300;HTU21D;57704;51.112;5.878;2023-06-22T12:17:53;23.90;76.76
70300;HTU21D;57704;51.112;5.878;2023-06-22T12:20:19;23.74;77.21
70300;HTU21D;57704;51.112;5.878;2023-06-22T12:22:45;23.67;77.76
70300;HTU21D;57704;51.112;5.878;2023-06-22T12:25:11;23.62;77.44
70300;HTU21D;57704;51.112;5.878;2023-06-22T12:27:37;23.54;77.69
70300;HTU21D;57704;51.112;5.878;2023-06-22T12:30:04;23.49;77.52
70300;HTU21D;57704;51.112;5.878;2023-06-22T12:32:31;23.38;77.70
70300;HTU21D;57704;51.112;5.878;2023-06-22T12:34:57;23.21;77.97
70300;HTU21D;57704;51.112;5.878;2023-06-22T12:37:23;23.07;78.50
70300;HTU21D;57704;51.112;5.878;2023-06-22T12:39:49;22.97;79.26
70300;HTU21D;57704;51.112;5.878;2023-06-22T12:42:16;22.98;79.11
70300;HTU21D;57704;51.112;5.878;2023-06-22T12:44:42;23.09;78.79
70300;HTU21D;57704;51.112;5.878;2023-06-22T12:47:09;23.18;79.26
70300;HTU21D;57704;51.112;5.878;2023-06-22T12:49:35;23.32;79.01
70300;HTU21D;57704;51.112;5.878;2023-06-22T12:52:02;23.50;78.92
70300;HTU21D;57704;51.112;5.878;2023-06-22T12:54:28;23.65;77.73
70300;HTU21D;57704;51.112;5.878;2023-06-22T12:56:55;23.65;77.66
70300;HTU21D;57704;51.112;5.878;2023-06-22T12:59:21;23.72;77.41
70300;HTU21D;57704;51.112;5.878;2023-06-22T13:01:47;23.77;76.30
70300;HTU21D;57704;51.112;5.878;2023-06-22T13:04:13;23.60;76.41
70300;HTU21D;57704;51.112;5.878;2023-06-22T13:06:41;23.42;76.57
70300;HTU21D;57704;51.112;5.878;2023-06-22T13:09:09;23.26;77.09
70300;HTU21D;57704;51.112;5.878;2023-06-22T13:11:35;23.18;77.20
70300;HTU21D;57704;51.112;5.878;2023-06-22T13:14:01;23.16;77.14
70300;HTU21D;57704;51.112;5.878;2023-06-22T13:16:27;23.14;76.70
70300;HTU21D;57704;51.112;5.878;2023-06-22T13:18:53;23.08;76.61
70300;HTU21D;57704;51.112;5.878;2023-06-22T13:21:19;23.10;77.05
70300;HTU21D;57704;51.112;5.878;2023-06-22T13:23:46;23.22;76.79
70300;HTU21D;57704;51.112;5.878;2023-06-22T13:26:12;23.28;76.40
70300;HTU21D;57704;51.112;5.878;2023-06-22T13:28:38;23.37;76.18
70300;HTU21D;57704;51.112;5.878;2023-06-22T13:31:04;23.41;76.05
70300;HTU21D;57704;51.112;5.878;2023-06-22T13:33:31;23.42;75.37
70300;HTU21D;57704;51.112;5.878;2023-06-22T13:35:56;23.27;75.83
70300;HTU21D;57704;51.112;5.878;2023-06-22T13:38:22;23.26;75.79
70300;HTU21D;57704;51.112;5.878;2023-06-22T13:40:49;23.23;75.66
70300;HTU21D;57704;51.112;5.878;2023-06-22T13:43:16;23.22;75.35
70300;HTU21D;57704;51.112;5.878;2023-06-22T13:45:42;23.15;76.16
70300;HTU21D;57704;51.112;5.878;2023-06-22T13:48:09;23.16;75.10
70300;HTU21D;57704;51.112;5.878;2023-06-22T13:50:35;23.06;75.41
70300;HTU21D;57704;51.112;5.878;2023-06-22T13:53:04;23.00;75.35
70300;HTU21D;57704;51.112;5.878;2023-06-22T13:55:30;22.99;75.79
70300;HTU21D;57704;51.112;5.878;2023-06-22T13:57:56;23.09;74.89
70300;HTU21D;57704;51.112;5.878;2023-06-22T14:00:22;23.13;74.44
70300;HTU21D;57704;51.112;5.878;2023-06-22T14:02:48;23.08;74.59
70300;HTU21D;57704;51.112;5.878;2023-06-22T14:05:14;23.07;74.56
70300;HTU21D;57704;51.112;5.878;2023-06-22T14:07:40;23.09;75.00
70300;HTU21D;57704;51.112;5.878;2023-06-22T14:10:07;23.11;74.96
70300;HTU21D;57704;51.112;5.878;2023-06-22T14:12:36;23.18;73.95
70300;HTU21D;57704;51.112;5.878;2023-06-22T14:15:02;23.02;74.04
70300;HTU21D;57704;51.112;5.878;2023-06-22T14:17:28;22.82;74.76
70300;HTU21D;57704;51.112;5.878;2023-06-22T14:19:54;22.76;74.95
70300;HTU21D;57704;51.112;5.878;2023-06-22T14:22:21;22.82;75.14
70300;HTU21D;57704;51.112;5.878;2023-06-22T14:24:48;22.79;75.65
70300;HTU21D;57704;51.112;5.878;2023-06-22T14:27:15;22.61;75.55
70300;HTU21D;57704;51.112;5.878;2023-06-22T14:29:41;22.29;76.27
70300;HTU21D;57704;51.112;5.878;2023-06-22T14:32:07;21.98;77.41
70300;HTU21D;57704;51.112;5.878;2023-06-22T14:34:34;21.75;78.27
70300;HTU21D;57704;51.112;5.878;2023-06-22T14:37:08;21.58;79.12
70300;HTU21D;57704;51.112;5.878;2023-06-22T14:39:38;21.48;79.75
70300;HTU21D;57704;51.112;5.878;2023-06-22T14:42:05;21.40;79.79
70300;HTU21D;57704;51.112;5.878;2023-06-22T14:44:31;21.32;80.24
70300;HTU21D;57704;51.112;5.878;2023-06-22T14:46:58;21.27;80.59
70300;HTU21D;57704;51.112;5.878;2023-06-22T14:49:24;21.22;80.55
70300;HTU21D;57704;51.112;5.878;2023-06-22T14:51:50;21.14;80.93
70300;HTU21D;57704;51.112;5.878;2023-06-22T14:54:16;21.11;81.20
70300;HTU21D;57704;51.112;5.878;2023-06-22T14:56:42;21.09;81.24
70300;HTU21D;57704;51.112;5.878;2023-06-22T14:59:09;21.06;81.91
70300;HTU21D;57704;51.112;5.878;2023-06-22T15:01:35;21.04;81.21
70300;HTU21D;57704;51.112;5.878;2023-06-22T15:04:01;20.96;81.19
70300;HTU21D;57704;51.112;5.878;2023-06-22T15:06:27;20.88;81.38
70300;HTU21D;57704;51.112;5.878;2023-06-22T15:08:53;20.80;81.75
70300;HTU21D;57704;51.112;5.878;2023-06-22T15:11:19;20.83;81.33
70300;HTU21D;57704;51.112;5.878;2023-06-22T15:13:45;20.68;82.21
70300;HTU21D;57704;51.112;5.878;2023-06-22T15:16:11;20.59;82.37
70300;HTU21D;57704;51.112;5.878;2023-06-22T15:18:37;20.57;82.82